createdAt,value
2022-08-05T00:02:51.317Z,50.63
2022-08-05T00:06:04.978Z,50.49
2022-08-05T00:09:19.431Z,50.73
2022-08-05T00:12:22.753Z,50.78
2022-08-05T00:15:56.383Z,50.92
2022-08-05T00:18:50.179Z,50.87
2022-08-05T00:21:54.049Z,50.85
2022-08-05T00:24:58.667Z,50.95
2022-08-05T00:28:01.714Z,50.99
2022-08-05T00:31:07.586Z,50.97
2022-08-05T00:34:55.858Z,51.00
2022-08-05T00:37:50.906Z,51.12
2022-08-05T00:41:00.135Z,51.07
2022-08-05T00:44:03.609Z,51.24
2022-08-05T00:47:06.797Z,51.12
2022-08-05T00:50:15.226Z,51.27
2022-08-05T00:53:45.057Z,51.10
2022-08-05T00:56:51.822Z,51.35
2022-08-05T00:59:55.762Z,51.22
2022-08-05T01:03:00.066Z,51.31
2022-08-05T01:06:05.357Z,51.36
2022-08-05T01:09:08.619Z,51.35
2022-08-05T01:12:19.229Z,51.35
2022-08-05T01:15:35.547Z,51.59
2022-08-05T01:18:56.183Z,51.47
2022-08-05T01:22:24.069Z,51.32
2022-08-05T01:25:53.756Z,51.58
2022-08-05T01:29:04.385Z,51.53
2022-08-05T01:32:18.678Z,51.54
2022-08-05T01:35:51.060Z,51.71
2022-08-05T01:38:51.496Z,52.12
2022-08-05T01:41:56.980Z,52.20
2022-08-05T01:45:03.472Z,52.58
2022-08-05T01:48:10.880Z,52.35
2022-08-05T01:51:15.946Z,52.31
2022-08-05T01:54:25.489Z,52.49
2022-08-05T01:58:09.705Z,52.40
2022-08-05T02:01:00.676Z,52.08
2022-08-05T02:04:05.408Z,52.33
2022-08-05T02:07:08.531Z,52.15
2022-08-05T02:10:17.533Z,52.23
2022-08-05T02:13:28.583Z,52.48
2022-08-05T02:16:55.383Z,52.45
2022-08-05T02:20:02.948Z,52.19
2022-08-05T02:23:10.248Z,52.22
2022-08-05T02:26:17.445Z,52.32
2022-08-05T02:29:26.067Z,52.51
2022-08-05T02:32:34.579Z,52.25
2022-08-05T02:35:49.910Z,52.29
2022-08-05T02:38:59.723Z,52.33
2022-08-05T02:42:04.978Z,52.39
2022-08-05T02:45:10.372Z,52.49
2022-08-05T02:48:15.990Z,52.54
2022-08-05T02:51:28.207Z,52.92
2022-08-05T02:54:50.760Z,52.80
2022-08-05T02:58:10.139Z,52.65
2022-08-05T03:01:24.894Z,52.72
2022-08-05T03:04:30.641Z,52.96
2022-08-05T03:08:00.331Z,53.12
2022-08-05T03:11:47.620Z,53.17
2022-08-05T03:14:21.494Z,53.13
2022-08-05T03:17:24.713Z,53.27
2022-08-05T03:20:29.474Z,53.39
2022-08-05T03:23:34.634Z,53.33
2022-08-05T03:26:38.498Z,53.31
2022-08-05T03:29:46.003Z,53.37
2022-08-05T03:33:07.352Z,53.06
2022-08-05T03:36:12.358Z,53.20
2022-08-05T03:39:26.739Z,53.39
2022-08-05T03:42:32.276Z,53.31
2022-08-05T03:45:58.291Z,53.28
2022-08-05T03:48:59.488Z,53.40
2022-08-05T03:52:48.367Z,53.37
2022-08-05T03:55:52.812Z,53.29
2022-08-05T03:59:08.786Z,53.32
2022-08-05T04:02:17.302Z,53.63
2022-08-05T04:05:36.770Z,53.47
2022-08-05T04:08:45.226Z,53.49
2022-08-05T04:11:52.758Z,53.60
2022-08-05T04:14:57.780Z,53.44
2022-08-05T04:18:03.390Z,53.47
2022-08-05T04:21:07.335Z,53.56
2022-08-05T04:24:19.704Z,53.68
2022-08-05T04:27:33.350Z,53.52
2022-08-05T04:30:45.345Z,53.73
2022-08-05T04:34:18.439Z,53.75
2022-08-05T04:37:12.014Z,53.64
2022-08-05T04:40:19.478Z,53.67
2022-08-05T04:43:22.803Z,53.70
2022-08-05T04:46:29.071Z,53.72
2022-08-05T04:49:38.482Z,53.55
2022-08-05T04:52:55.534Z,53.55
2022-08-05T04:56:33.341Z,53.69
2022-08-05T04:59:37.419Z,54.18
2022-08-05T05:02:43.284Z,54.22
2022-08-05T05:06:40.556Z,54.35
2022-08-05T05:09:13.253Z,54.43
2022-08-05T05:12:18.817Z,54.32
2022-08-05T05:16:01.804Z,54.38
2022-08-05T05:19:02.744Z,54.46
2022-08-05T05:22:22.929Z,54.19
2022-08-05T05:25:32.502Z,54.44
2022-08-05T05:28:42.871Z,54.35
2022-08-05T05:31:48.237Z,54.43
2022-08-05T05:34:52.321Z,54.33
2022-08-05T05:38:01.701Z,54.68
2022-08-05T05:41:05.324Z,55.03
2022-08-05T05:44:26.988Z,54.98
2022-08-05T05:48:05.536Z,55.20
2022-08-05T05:50:59.142Z,55.09
2022-08-05T05:54:18.539Z,56.16
2022-08-05T05:57:23.252Z,56.55
2022-08-05T06:00:31.738Z,56.32
2022-08-05T06:03:54.128Z,56.33
2022-08-05T06:07:01.573Z,56.01
2022-08-05T06:10:10.040Z,56.26
2022-08-05T06:13:13.533Z,57.47
2022-08-05T06:16:30.696Z,57.34
2022-08-05T06:19:35.906Z,57.50
2022-08-05T06:22:40.557Z,56.96
2022-08-05T06:26:13.856Z,57.31
2022-08-05T06:29:25.551Z,57.82
2022-08-05T06:32:33.138Z,58.18
2022-08-05T06:36:08.078Z,58.36
2022-08-05T06:38:59.292Z,58.11
2022-08-05T06:42:04.082Z,58.42
2022-08-05T06:45:09.313Z,58.73
2022-08-05T06:48:54.499Z,58.55
2022-08-05T06:51:40.821Z,58.71
2022-08-05T06:54:43.973Z,58.77
2022-08-05T06:58:02.863Z,58.76
2022-08-05T07:01:21.048Z,58.90
2022-08-05T07:04:25.589Z,58.95
2022-08-05T07:07:43.340Z,58.97
2022-08-05T07:10:53.452Z,58.86
2022-08-05T07:14:15.636Z,58.99
2022-08-05T07:18:09.288Z,58.74
2022-08-05T07:20:55.935Z,58.51
2022-08-05T07:24:01.285Z,58.43
2022-08-05T07:27:04.733Z,58.91
2022-08-05T07:30:23.827Z,59.06
2022-08-05T07:33:36.588Z,59.24
2022-08-05T07:36:42.479Z,59.42
2022-08-05T07:40:26.044Z,59.02
2022-08-05T07:43:14.776Z,58.92
2022-08-05T07:46:26.060Z,58.69
2022-08-05T07:49:29.518Z,58.40
2022-08-05T07:52:33.946Z,57.89
2022-08-05T07:56:05.849Z,57.62
2022-08-05T07:59:00.057Z,57.70
2022-08-05T08:02:03.504Z,57.50
2022-08-05T08:05:07.698Z,57.23
2022-08-05T08:08:15.972Z,56.96
2022-08-05T08:11:27.640Z,56.70
2022-08-05T08:14:47.073Z,56.87
2022-08-05T08:17:52.873Z,57.02
2022-08-05T08:21:02.179Z,57.17
2022-08-05T08:24:13.741Z,57.36
2022-08-05T08:27:17.159Z,57.34
2022-08-05T08:30:32.912Z,56.74
2022-08-05T08:33:39.662Z,56.41
2022-08-05T08:36:50.181Z,56.23
2022-08-05T08:39:59.346Z,55.80
2022-08-05T08:45:01.617Z,54.70
2022-08-05T08:46:29.119Z,53.71
2022-08-05T08:50:22.880Z,53.22
2022-08-05T08:53:07.919Z,53.02
2022-08-05T08:56:17.234Z,53.13
2022-08-05T08:59:21.830Z,53.84
2022-08-05T09:02:30.972Z,53.69
2022-08-05T09:05:38.231Z,53.71
2022-08-05T09:08:42.178Z,54.07
2022-08-05T09:11:51.932Z,54.12
2022-08-05T09:15:05.777Z,54.32
2022-08-05T09:18:10.002Z,54.51
2022-08-05T09:21:20.885Z,55.33
2022-08-05T09:24:39.942Z,55.58
2022-08-05T09:28:04.051Z,55.47
2022-08-05T09:31:23.483Z,55.56
2022-08-05T09:34:51.560Z,55.58
2022-08-05T09:38:16.986Z,55.65
2022-08-05T09:41:19.479Z,56.06
2022-08-05T09:44:36.825Z,56.17
2022-08-05T09:47:55.351Z,56.22
2022-08-05T09:51:01.520Z,57.20
2022-08-05T09:54:08.333Z,56.74
2022-08-05T09:57:23.172Z,56.73
2022-08-05T10:00:29.622Z,56.83
2022-08-05T10:03:56.576Z,56.66
2022-08-05T10:06:59.930Z,56.86
2022-08-05T10:10:14.885Z,56.59
2022-08-05T10:13:44.081Z,56.49
2022-08-05T10:16:53.544Z,56.34
2022-08-05T10:20:04.564Z,56.46
2022-08-05T10:23:21.843Z,56.52
2022-08-05T10:26:51.180Z,56.36
2022-08-05T10:30:41.581Z,56.35
2022-08-05T10:33:21.262Z,56.35
2022-08-05T10:36:26.221Z,57.59
2022-08-05T10:40:03.218Z,57.62
2022-08-05T10:43:02.355Z,57.55
2022-08-05T10:46:09.348Z,57.70
2022-08-05T10:49:17.246Z,57.97
2022-08-05T10:52:49.396Z,58.06
2022-08-05T10:56:21.047Z,58.09
2022-08-05T11:00:04.399Z,58.23
2022-08-05T11:03:23.181Z,58.23
2022-08-05T11:06:31.876Z,58.14
2022-08-05T11:10:09.571Z,58.08
2022-08-05T11:13:40.750Z,58.21
2022-08-05T11:18:07.392Z,57.98
2022-08-05T11:20:57.618Z,58.14
2022-08-05T11:24:30.702Z,58.41
2022-08-05T11:27:50.760Z,59.06
2022-08-05T11:31:58.503Z,59.45
2022-08-05T11:34:59.533Z,59.36
2022-08-05T11:38:29.210Z,59.46
2022-08-05T11:41:56.477Z,60.16
2022-08-05T11:44:53.659Z,60.53
2022-08-05T11:47:59.026Z,60.59
2022-08-05T11:51:03.170Z,60.88
2022-08-05T11:54:07.073Z,61.00
2022-08-05T11:57:25.259Z,60.76
2022-08-05T12:00:30.378Z,60.37
2022-08-05T12:03:43.302Z,60.17
2022-08-05T12:07:01.836Z,60.05
2022-08-05T12:10:09.236Z,58.79
2022-08-05T12:13:28.068Z,59.24
2022-08-05T12:16:45.141Z,58.92
2022-08-05T12:20:26.353Z,58.30
2022-08-05T12:23:15.082Z,57.73
2022-08-05T12:26:18.175Z,57.41
2022-08-05T12:29:25.133Z,57.58
2022-08-05T12:32:28.461Z,57.74
2022-08-05T12:35:36.969Z,56.83
2022-08-05T12:38:43.282Z,56.86
2022-08-05T12:41:46.871Z,57.40
2022-08-05T12:44:53.036Z,56.77
2022-08-05T12:48:01.404Z,57.32
2022-08-05T12:52:11.210Z,56.85
2022-08-05T12:54:44.691Z,56.35
2022-08-05T12:58:38.569Z,56.45
2022-08-05T13:02:03.463Z,56.46
2022-08-05T13:04:52.423Z,56.42
2022-08-05T13:08:00.863Z,56.65
2022-08-05T13:11:04.516Z,56.79
2022-08-05T13:14:19.341Z,56.72
2022-08-05T13:17:31.863Z,56.77
2022-08-05T13:20:44.670Z,56.67
2022-08-05T13:23:52.187Z,56.47
2022-08-05T13:26:55.477Z,56.31
2022-08-05T13:30:34.510Z,56.32
2022-08-05T13:34:22.197Z,56.33
2022-08-05T13:36:47.455Z,56.44
2022-08-05T13:40:16.700Z,56.28
2022-08-05T13:43:22.037Z,56.29
2022-08-05T13:46:51.034Z,56.18
2022-08-05T13:49:53.298Z,55.98
2022-08-05T13:52:56.726Z,56.29
2022-08-05T13:56:02.179Z,55.84
2022-08-05T13:59:06.322Z,55.49
2022-08-05T14:02:26.478Z,55.35
2022-08-05T14:06:24.485Z,55.22
2022-08-05T14:08:57.639Z,55.04
2022-08-05T14:12:17.084Z,54.95
2022-08-05T14:16:06.038Z,55.08
2022-08-05T14:18:44.737Z,55.57
2022-08-05T14:22:09.998Z,55.63
2022-08-05T14:25:21.666Z,55.86
2022-08-05T14:28:27.083Z,56.04
2022-08-05T14:31:54.526Z,55.98
2022-08-05T14:34:53.689Z,56.38
2022-08-05T14:37:59.158Z,56.57
2022-08-05T14:41:07.719Z,56.94
2022-08-05T14:44:20.360Z,57.13
2022-08-05T14:48:02.948Z,57.03
2022-08-05T14:50:47.043Z,56.97
2022-08-05T14:54:06.609Z,56.89
2022-08-05T14:57:16.146Z,56.78
2022-08-05T15:00:21.434Z,56.57
2022-08-05T15:03:33.828Z,56.44
2022-08-05T15:06:37.927Z,56.75
2022-08-05T15:09:51.356Z,56.53
2022-08-05T15:13:03.668Z,56.33
2022-08-05T15:16:07.843Z,56.20
2022-08-05T15:19:23.514Z,56.33
2022-08-05T15:22:28.131Z,55.99
2022-08-05T15:25:51.667Z,55.89
2022-08-05T15:28:56.097Z,56.10
2022-08-05T15:32:03.111Z,56.08
2022-08-05T15:35:10.860Z,56.27
2022-08-05T15:38:34.522Z,56.33
2022-08-05T15:41:55.910Z,56.57
2022-08-05T15:45:01.028Z,56.45
2022-08-05T15:48:05.065Z,56.62
2022-08-05T15:51:09.862Z,56.32
2022-08-05T15:54:15.068Z,56.05
2022-08-05T15:57:20.259Z,56.20
2022-08-05T16:00:26.005Z,56.37
2022-08-05T16:03:35.917Z,56.30
2022-08-05T16:06:44.310Z,56.51
2022-08-05T16:09:47.314Z,56.40
2022-08-05T16:12:51.790Z,56.67
2022-08-05T16:15:55.589Z,56.97
2022-08-05T16:18:58.597Z,56.83
2022-08-05T16:22:03.711Z,56.96
2022-08-05T16:25:09.550Z,57.09
2022-08-05T16:28:15.543Z,57.24
2022-08-05T16:31:18.762Z,57.26
2022-08-05T16:34:23.345Z,57.42
2022-08-05T16:38:03.341Z,57.64
2022-08-05T16:40:54.964Z,57.61
2022-08-05T16:44:00.782Z,57.78
2022-08-05T16:47:04.087Z,57.87
2022-08-05T16:50:09.978Z,57.84
2022-08-05T16:53:23.357Z,58.00
2022-08-05T16:56:36.470Z,58.04
2022-08-05T17:00:02.919Z,58.21
2022-08-05T17:03:15.263Z,58.42
2022-08-05T17:06:24.722Z,58.43
2022-08-05T17:09:27.935Z,58.35
2022-08-05T17:12:51.486Z,58.16
2022-08-05T17:16:13.166Z,57.77
2022-08-05T17:19:19.746Z,57.69
2022-08-05T17:22:25.443Z,57.68
2022-08-05T17:25:33.786Z,57.76
2022-08-05T17:28:37.372Z,57.69
2022-08-05T17:31:58.433Z,57.67
2022-08-05T17:35:02.167Z,57.87
2022-08-05T17:38:07.790Z,57.35
2022-08-05T17:42:18.236Z,57.66
2022-08-05T17:44:34.878Z,57.43
2022-08-05T17:47:39.886Z,57.05
2022-08-05T17:50:43.098Z,57.21
2022-08-05T17:53:50.790Z,56.94
2022-08-05T17:56:58.553Z,56.76
2022-08-05T18:00:05.623Z,56.46
2022-08-05T18:03:10.284Z,56.56
2022-08-05T18:06:15.213Z,56.28
2022-08-05T18:09:18.774Z,55.92
2022-08-05T18:12:24.179Z,56.21
2022-08-05T18:15:28.083Z,55.93
2022-08-05T18:18:39.886Z,55.72
2022-08-05T18:22:08.832Z,55.40
2022-08-05T18:25:07.288Z,55.23
2022-08-05T18:28:10.386Z,54.72
2022-08-05T18:31:15.911Z,54.32
2022-08-05T18:34:21.672Z,53.90
2022-08-05T18:37:33.508Z,53.78
2022-08-05T18:41:57.289Z,53.41
2022-08-05T18:44:05.606Z,52.89
2022-08-05T18:47:12.153Z,52.66
2022-08-05T18:50:42.267Z,52.74
2022-08-05T18:53:50.470Z,52.56
2022-08-05T18:56:53.735Z,52.38
2022-08-05T19:00:02.314Z,52.43
2022-08-05T19:03:07.206Z,52.01
2022-08-05T19:06:22.165Z,52.11
2022-08-05T19:09:40.075Z,51.67
2022-08-05T19:12:43.465Z,51.68
2022-08-05T19:15:57.060Z,51.25
2022-08-05T19:19:01.585Z,51.02
2022-08-05T19:22:06.275Z,50.90
2022-08-05T19:25:10.247Z,50.70
2022-08-05T19:28:24.751Z,50.45
2022-08-05T19:31:27.843Z,49.92
2022-08-05T19:34:36.929Z,49.80
2022-08-05T19:38:06.906Z,49.84
2022-08-05T19:41:06.999Z,49.68
2022-08-05T19:44:13.027Z,49.71
2022-08-05T19:47:17.081Z,49.49
2022-08-05T19:50:21.002Z,49.19
2022-08-05T19:54:04.062Z,49.20
2022-08-05T19:56:52.522Z,49.05
2022-08-05T20:00:02.440Z,49.23
2022-08-05T20:03:14.392Z,49.14
2022-08-05T20:06:28.738Z,48.98
2022-08-05T20:09:54.375Z,49.08
2022-08-05T20:12:56.798Z,49.02
2022-08-05T20:16:00.813Z,49.21
2022-08-05T20:19:07.368Z,49.04
2022-08-05T20:22:10.423Z,49.04
2022-08-05T20:25:15.841Z,49.07
2022-08-05T20:28:18.833Z,48.83
2022-08-05T20:31:37.023Z,49.11
2022-08-05T20:34:46.255Z,49.15
2022-08-05T20:38:05.328Z,49.18
2022-08-05T20:41:11.587Z,49.25
2022-08-05T20:44:30.583Z,49.16
2022-08-05T20:47:34.117Z,49.23
2022-08-05T20:50:45.482Z,49.37
2022-08-05T20:53:56.398Z,49.04
2022-08-05T20:57:03.367Z,49.48
2022-08-05T21:00:21.338Z,49.12
2022-08-05T21:03:34.481Z,48.82
2022-08-05T21:06:38.325Z,48.83
2022-08-05T21:09:53.814Z,48.87
2022-08-05T21:13:08.959Z,49.03
2022-08-05T21:16:17.848Z,49.19
2022-08-05T21:19:20.831Z,49.18
2022-08-05T21:22:26.846Z,49.64
2022-08-05T21:25:34.131Z,49.34
2022-08-05T21:28:40.105Z,49.25
2022-08-05T21:31:51.383Z,49.22
2022-08-05T21:34:56.026Z,49.38
2022-08-05T21:38:18.025Z,49.29
2022-08-05T21:41:20.968Z,49.09
2022-08-05T21:44:27.058Z,48.94
2022-08-05T21:47:56.571Z,49.30
2022-08-05T21:50:54.322Z,49.21
2022-08-05T21:54:03.480Z,49.12
2022-08-05T21:57:30.948Z,49.55
2022-08-05T22:00:31.841Z,49.10
2022-08-05T22:03:48.568Z,49.28
2022-08-05T22:06:57.054Z,49.35
2022-08-05T22:10:00.659Z,49.11
2022-08-05T22:13:09.199Z,49.44
2022-08-05T22:16:41.611Z,49.34
2022-08-05T22:20:00.678Z,49.71
2022-08-05T22:24:01.168Z,49.56
2022-08-05T22:27:11.044Z,49.92
2022-08-05T22:30:17.507Z,50.08
2022-08-05T22:33:57.080Z,50.25
2022-08-05T22:36:44.862Z,50.50
2022-08-05T22:39:52.459Z,50.41
2022-08-05T22:42:58.501Z,50.42
2022-08-05T22:46:04.645Z,50.38
2022-08-05T22:50:18.483Z,50.46
2022-08-05T22:52:37.492Z,50.52
2022-08-05T22:55:56.261Z,50.40
2022-08-05T22:59:04.019Z,50.63
2022-08-05T23:02:29.183Z,50.69
2022-08-05T23:05:36.055Z,50.35
2022-08-05T23:08:39.286Z,50.83
2022-08-05T23:11:46.644Z,50.40
2022-08-05T23:14:53.322Z,50.67
2022-08-05T23:18:00.551Z,50.43
2022-08-05T23:21:07.702Z,50.52
2022-08-05T23:24:13.391Z,50.46
2022-08-05T23:27:17.270Z,50.52
2022-08-05T23:30:26.877Z,50.58
2022-08-05T23:34:05.323Z,50.87
2022-08-05T23:36:56.239Z,50.52
2022-08-05T23:40:07.479Z,50.52
2022-08-05T23:43:24.951Z,50.64
2022-08-05T23:46:37.501Z,50.82
2022-08-05T23:49:42.345Z,50.70
2022-08-05T23:52:51.610Z,50.56
2022-08-05T23:55:56.848Z,50.46
2022-08-05T23:59:02.312Z,50.39
